Strona główna
METAR-TAF:

METAR-TAF

Lotnisko :

Garrison Municipal Airport

Garrison, Dakota Północna, Stany Zjednoczone

Szerokość geograficzna: 47-38-45N, Długość geograficzna: 101-26-22W, wysokość: 582 m

Aktualna obserwacja pogody

Raport powstał 11 minut temu, godzina 02:52 UTC
Wiatr 3 kt od wschodnio-północny wschód
Temperatura 15°C
Wilgotność 63%
Ciśnienie 1018 hPa

METAR: KN60 180252Z AUTO 06003KT 15/08 A3006 RMK AO1 SLP181 T01500083 53005

czas: 22:03 (03:03 UTC)


TAF: brakujący

Obserwacja i prognoza pogody dla ponad 4000 lotnisk (raport METAR i TAF).

Dostępne stacje oznaczono żółtymi i czerwonymi punktami na mapie.

Najedź kursorem aby zobaczyć nazwę stacji.

Kliknij aby zobaczyć obserwacje i prognozy pogody.

Aby zmienić mapę: kliknij na zielony przycisk z czarnym krzyżykiem, aby powiększyć; na zielony przycisk z myślnikiem, aby pomniejszyć; na zielone strzałki, aby przejść do map sąsiednich.


METAR-TAF: